createdAt,value
2023-05-05T00:00:13.173Z,47.89
2023-05-05T00:02:17.848Z,47.80
2023-05-05T00:04:22.665Z,47.27
2023-05-05T00:06:27.894Z,47.93
2023-05-05T00:08:31.384Z,47.93
2023-05-05T00:10:34.709Z,48.02
2023-05-05T00:12:38.103Z,47.88
2023-05-05T00:14:42.337Z,47.69
2023-05-05T00:16:45.746Z,47.57
2023-05-05T00:18:50.424Z,47.58
2023-05-05T00:20:53.741Z,47.53
2023-05-05T00:22:57.331Z,47.77
2023-05-05T00:25:00.771Z,48.14
2023-05-05T00:27:04.298Z,47.97
2023-05-05T00:29:08.538Z,48.02
2023-05-05T00:31:11.891Z,48.07
2023-05-05T00:33:15.231Z,47.89
2023-05-05T00:35:20.020Z,47.82
2023-05-05T00:37:23.372Z,47.43
2023-05-05T00:39:26.649Z,47.79
2023-05-05T00:41:30.205Z,47.49
2023-05-05T00:43:33.485Z,47.74
2023-05-05T00:45:39.090Z,47.53
2023-05-05T00:47:44.301Z,47.39
2023-05-05T00:49:47.708Z,47.56
2023-05-05T00:51:52.400Z,47.59
2023-05-05T00:53:56.091Z,47.88
2023-05-05T00:56:00.194Z,48.23
2023-05-05T00:58:04.264Z,48.61
2023-05-05T01:00:10.828Z,48.17
2023-05-05T01:02:14.830Z,48.76
2023-05-05T01:04:18.445Z,48.94
2023-05-05T01:06:37.432Z,49.04
2023-05-05T01:08:52.478Z,48.87
2023-05-05T01:11:03.138Z,48.63
2023-05-05T01:13:22.381Z,48.60
2023-05-05T01:15:34.294Z,48.66
2023-05-05T01:17:43.483Z,48.79
2023-05-05T01:20:00.040Z,48.95
2023-05-05T01:22:08.092Z,48.87
2023-05-05T01:24:44.891Z,48.99
2023-05-05T01:27:11.068Z,49.04
2023-05-05T01:29:32.532Z,49.29
2023-05-05T01:31:53.044Z,49.63
2023-05-05T01:34:01.642Z,49.52
2023-05-05T01:36:11.519Z,49.52
2023-05-05T01:38:18.099Z,49.58
2023-05-05T01:40:26.717Z,49.76
2023-05-05T01:42:31.687Z,50.14
2023-05-05T01:44:37.450Z,50.38
2023-05-05T01:46:40.869Z,50.38
2023-05-05T01:48:47.482Z,50.66
2023-05-05T01:50:53.180Z,50.65
2023-05-05T01:52:58.231Z,50.85
2023-05-05T01:55:03.906Z,50.91
2023-05-05T01:57:09.527Z,51.25
2023-05-05T01:59:13.961Z,51.42
2023-05-05T02:01:19.830Z,51.37
2023-05-05T02:03:25.752Z,51.29
2023-05-05T02:05:31.706Z,51.58
2023-05-05T02:07:36.740Z,51.55
2023-05-05T02:09:41.752Z,51.62
2023-05-05T02:11:45.237Z,51.96
2023-05-05T02:13:50.733Z,52.50
2023-05-05T02:15:56.327Z,52.51
2023-05-05T02:18:01.483Z,52.23
2023-05-05T02:20:08.293Z,52.43
2023-05-05T02:22:15.422Z,52.60
2023-05-05T02:24:18.788Z,52.76
2023-05-05T02:26:24.683Z,52.96
2023-05-05T02:28:34.382Z,53.15
2023-05-05T02:30:39.792Z,53.37
2023-05-05T02:32:49.497Z,53.72
2023-05-05T02:34:55.369Z,53.75
2023-05-05T02:37:01.800Z,54.00
2023-05-05T02:39:15.308Z,54.18
2023-05-05T02:41:22.254Z,54.35
2023-05-05T02:43:28.782Z,54.38
2023-05-05T02:45:32.268Z,54.44
2023-05-05T02:47:37.708Z,54.94
2023-05-05T02:49:43.534Z,55.25
2023-05-05T02:51:47.038Z,55.17
2023-05-05T02:54:00.044Z,55.21
2023-05-05T02:56:17.340Z,55.36
2023-05-05T02:58:32.279Z,55.22
2023-05-05T03:00:44.957Z,55.42
2023-05-05T03:02:56.386Z,55.82
2023-05-05T03:05:05.341Z,55.93
2023-05-05T03:07:16.570Z,56.12
2023-05-05T03:09:30.958Z,56.12
2023-05-05T03:11:41.611Z,56.12
2023-05-05T03:13:48.866Z,56.13
2023-05-05T03:15:57.861Z,56.15
2023-05-05T03:18:04.255Z,56.30
2023-05-05T03:20:09.403Z,56.34
2023-05-05T03:22:17.124Z,56.52
2023-05-05T03:24:23.116Z,56.38
2023-05-05T03:26:35.249Z,56.72
2023-05-05T03:28:40.415Z,56.67
2023-05-05T03:30:51.891Z,56.94
2023-05-05T03:32:55.510Z,56.97
2023-05-05T03:34:59.012Z,57.06
2023-05-05T03:37:07.936Z,57.25
2023-05-05T03:39:11.785Z,57.30
2023-05-05T03:41:15.162Z,57.26
2023-05-05T03:43:19.576Z,57.16
2023-05-05T03:45:24.503Z,57.16
2023-05-05T03:47:29.963Z,57.10
2023-05-05T03:49:33.767Z,57.12
2023-05-05T03:51:37.331Z,57.37
2023-05-05T03:53:40.725Z,57.53
2023-05-05T03:55:45.285Z,57.62
2023-05-05T03:57:48.989Z,57.75
2023-05-05T03:59:52.274Z,57.95
2023-05-05T04:01:57.768Z,58.03
2023-05-05T04:04:01.216Z,58.34
2023-05-05T04:06:05.941Z,58.42
2023-05-05T04:08:10.152Z,58.47
2023-05-05T04:10:13.453Z,58.40
2023-05-05T04:12:16.855Z,58.34
2023-05-05T04:14:20.496Z,58.35
2023-05-05T04:16:31.093Z,58.32
2023-05-05T04:18:38.627Z,58.38
2023-05-05T04:20:44.153Z,58.42
2023-05-05T04:22:49.136Z,58.32
2023-05-05T04:24:54.471Z,58.62
2023-05-05T04:26:59.011Z,59.05
2023-05-05T04:29:03.435Z,59.45
2023-05-05T04:31:06.862Z,60.05
2023-05-05T04:33:13.587Z,60.17
2023-05-05T04:35:19.136Z,60.05
2023-05-05T04:37:22.706Z,60.07
2023-05-05T04:39:26.358Z,60.39
2023-05-05T04:41:30.161Z,60.27
2023-05-05T04:43:34.047Z,60.38
2023-05-05T04:45:37.450Z,60.41
2023-05-05T04:47:42.177Z,60.21
2023-05-05T04:49:45.886Z,60.34
2023-05-05T04:51:50.985Z,60.87
2023-05-05T04:53:54.440Z,60.57
2023-05-05T04:55:57.899Z,60.58
2023-05-05T04:58:01.268Z,60.71
2023-05-05T05:00:06.702Z,60.59
2023-05-05T05:02:10.200Z,60.64
2023-05-05T05:04:13.856Z,60.84
2023-05-05T05:06:17.135Z,60.77
2023-05-05T05:08:21.892Z,60.88
2023-05-05T05:10:25.331Z,60.60
2023-05-05T05:12:28.802Z,60.86
2023-05-05T05:14:37.731Z,61.06
2023-05-05T05:16:41.230Z,61.09
2023-05-05T05:18:44.573Z,60.96
2023-05-05T05:20:47.949Z,61.04
2023-05-05T05:22:52.102Z,60.96
2023-05-05T05:24:58.865Z,61.05
2023-05-05T05:27:02.785Z,61.26
2023-05-05T05:29:06.123Z,61.38
2023-05-05T05:31:09.741Z,61.32
2023-05-05T05:33:13.176Z,61.38
2023-05-05T05:35:17.972Z,61.32
2023-05-05T05:37:21.860Z,61.17
2023-05-05T05:39:25.366Z,61.17
2023-05-05T05:41:30.263Z,61.26
2023-05-05T05:43:34.316Z,61.12
2023-05-05T05:45:37.964Z,61.04
2023-05-05T05:47:43.862Z,61.12
2023-05-05T05:49:48.052Z,61.29
2023-05-05T05:51:51.730Z,61.48
2023-05-05T05:53:56.328Z,61.61
2023-05-05T05:56:01.317Z,61.85
2023-05-05T05:58:06.101Z,62.17
2023-05-05T06:00:10.929Z,62.23
2023-05-05T06:02:20.913Z,62.44
2023-05-05T06:04:24.744Z,62.40
2023-05-05T06:06:28.662Z,62.51
2023-05-05T06:08:32.197Z,62.48
2023-05-05T06:10:35.654Z,62.73
2023-05-05T06:12:43.777Z,62.75
2023-05-05T06:14:48.418Z,62.90
2023-05-05T06:16:52.720Z,62.75
2023-05-05T06:18:58.579Z,62.81
2023-05-05T06:21:02.089Z,62.80
2023-05-05T06:23:06.142Z,62.57
2023-05-05T06:25:12.731Z,62.65
2023-05-05T06:27:16.213Z,62.41
2023-05-05T06:29:19.559Z,62.48
2023-05-05T06:31:24.394Z,62.92
2023-05-05T06:33:27.871Z,63.16
2023-05-05T06:35:31.959Z,63.77
2023-05-05T06:37:35.356Z,64.58
2023-05-05T06:39:38.669Z,65.05
2023-05-05T06:41:42.048Z,65.38
2023-05-05T06:43:45.340Z,65.94
2023-05-05T06:45:50.294Z,66.54
2023-05-05T06:47:54.989Z,66.64
2023-05-05T06:49:58.423Z,66.94
2023-05-05T06:52:01.861Z,66.59
2023-05-05T06:54:05.647Z,66.39
2023-05-05T06:56:09.302Z,66.46
2023-05-05T06:58:13.105Z,67.03
2023-05-05T07:00:17.750Z,67.45
2023-05-05T07:02:25.254Z,67.90
2023-05-05T07:04:31.577Z,68.15
2023-05-05T07:06:35.043Z,68.88
2023-05-05T07:08:38.491Z,68.41
2023-05-05T07:10:41.975Z,68.12
2023-05-05T07:12:45.502Z,67.62
2023-05-05T07:14:48.871Z,67.81
2023-05-05T07:16:52.307Z,67.72
2023-05-05T07:18:56.130Z,67.64
2023-05-05T07:21:01.343Z,67.25
2023-05-05T07:23:04.665Z,67.55
2023-05-05T07:25:09.206Z,67.31
2023-05-05T07:27:12.576Z,67.28
2023-05-05T07:29:16.265Z,67.17
2023-05-05T07:31:21.886Z,67.28
2023-05-05T07:33:25.406Z,66.75
2023-05-05T07:35:28.974Z,66.78
2023-05-05T07:37:33.847Z,66.08
2023-05-05T07:39:37.346Z,65.92
2023-05-05T07:41:40.814Z,65.55
2023-05-05T07:43:44.760Z,65.16
2023-05-05T07:45:48.361Z,64.98
2023-05-05T07:47:52.011Z,64.86
2023-05-05T07:49:55.415Z,64.56
2023-05-05T07:51:58.875Z,64.67
2023-05-05T07:54:03.663Z,64.30
2023-05-05T07:56:08.755Z,64.79
2023-05-05T07:58:12.223Z,64.49
2023-05-05T08:00:19.271Z,63.46
2023-05-05T08:02:23.112Z,63.10
2023-05-05T08:04:26.502Z,63.70
2023-05-05T08:06:30.246Z,63.66
2023-05-05T08:08:33.594Z,63.68
2023-05-05T08:10:38.362Z,63.11
2023-05-05T08:12:41.759Z,62.79
2023-05-05T08:14:45.381Z,62.85
2023-05-05T08:16:48.905Z,61.13
2023-05-05T08:18:53.371Z,59.76
2023-05-05T08:20:57.203Z,60.12
2023-05-05T08:23:00.871Z,59.46
2023-05-05T08:25:04.715Z,59.82
2023-05-05T08:27:09.626Z,59.92
2023-05-05T08:29:12.955Z,59.90
2023-05-05T08:31:16.918Z,59.95
2023-05-05T08:33:20.346Z,59.70
2023-05-05T08:35:23.863Z,59.76
2023-05-05T08:37:27.294Z,59.85
2023-05-05T08:39:30.759Z,59.77
2023-05-05T08:41:34.362Z,59.38
2023-05-05T08:43:39.637Z,59.24
2023-05-05T08:45:43.116Z,59.42
2023-05-05T08:47:46.760Z,58.65
2023-05-05T08:49:50.553Z,58.95
2023-05-05T08:51:56.129Z,59.49
2023-05-05T08:54:04.144Z,59.03
2023-05-05T08:56:08.893Z,59.03
2023-05-05T08:58:13.859Z,59.93
2023-05-05T09:00:19.788Z,59.78
2023-05-05T09:02:28.360Z,59.31
2023-05-05T09:04:32.487Z,59.87
2023-05-05T09:06:37.120Z,59.29
2023-05-05T09:08:41.133Z,59.14
2023-05-05T09:10:44.642Z,58.87
2023-05-05T09:12:50.105Z,58.85
2023-05-05T09:14:53.470Z,58.60
2023-05-05T09:16:58.284Z,58.60
2023-05-05T09:19:03.238Z,59.23
2023-05-05T09:21:20.694Z,58.54
2023-05-05T09:23:24.118Z,59.11
2023-05-05T09:25:27.577Z,59.01
2023-05-05T09:27:31.139Z,59.39
2023-05-05T09:29:34.555Z,59.19
2023-05-05T09:31:38.157Z,59.45
2023-05-05T09:33:43.145Z,58.96
2023-05-05T09:35:50.786Z,59.08
2023-05-05T09:39:58.711Z,57.91
2023-05-05T09:42:03.688Z,58.60
2023-05-05T09:44:07.506Z,57.78
2023-05-05T09:46:10.901Z,58.12
2023-05-05T09:48:27.365Z,57.80
2023-05-05T09:50:44.400Z,58.39
2023-05-05T09:52:55.590Z,58.09
2023-05-05T09:54:58.994Z,57.65
2023-05-05T09:57:02.407Z,56.98
2023-05-05T09:59:12.136Z,56.97
2023-05-05T10:01:23.763Z,57.15
2023-05-05T10:03:27.287Z,56.69
2023-05-05T10:05:32.072Z,56.96
2023-05-05T10:07:36.211Z,55.92
2023-05-05T10:09:39.616Z,55.54
2023-05-05T10:11:43.517Z,55.05
2023-05-05T10:13:47.104Z,54.87
2023-05-05T10:15:52.032Z,54.55
2023-05-05T10:18:07.067Z,53.76
2023-05-05T10:20:14.290Z,54.41
2023-05-05T10:22:23.610Z,55.00
2023-05-05T10:24:31.754Z,54.58
2023-05-05T10:26:40.034Z,54.21
2023-05-05T10:28:46.939Z,54.69
2023-05-05T10:30:53.980Z,54.83
2023-05-05T10:33:22.846Z,55.34
2023-05-05T10:35:29.478Z,55.23
2023-05-05T10:37:34.788Z,55.02
2023-05-05T10:39:39.444Z,55.17
2023-05-05T10:41:43.917Z,55.17
2023-05-05T10:43:48.393Z,55.43
2023-05-05T10:45:52.066Z,54.98
2023-05-05T10:48:00.218Z,54.82
2023-05-05T10:50:11.161Z,55.35
2023-05-05T10:52:21.847Z,55.83
2023-05-05T10:54:34.669Z,55.39
2023-05-05T10:56:41.846Z,55.52
2023-05-05T10:58:59.140Z,56.05
2023-05-05T11:01:03.582Z,56.61
2023-05-05T11:03:25.657Z,55.90
2023-05-05T11:05:29.086Z,55.69
2023-05-05T11:07:34.301Z,56.09
2023-05-05T11:09:56.040Z,56.23
2023-05-05T11:12:07.306Z,56.30
2023-05-05T11:14:22.922Z,56.51
2023-05-05T11:16:47.359Z,56.88
2023-05-05T11:18:50.819Z,57.12
2023-05-05T11:21:17.188Z,57.62
2023-05-05T11:23:23.765Z,58.35
2023-05-05T11:25:51.454Z,58.67
2023-05-05T11:28:05.878Z,59.66
2023-05-05T11:30:10.743Z,60.93
2023-05-05T11:32:15.660Z,62.14
2023-05-05T11:34:28.733Z,64.12
2023-05-05T11:36:41.849Z,66.22
2023-05-05T11:39:06.037Z,68.59
2023-05-05T11:41:14.768Z,68.50
2023-05-05T11:43:19.930Z,67.09
2023-05-05T11:45:24.571Z,67.75
2023-05-05T11:47:33.429Z,68.03
2023-05-05T11:49:37.908Z,68.92
2023-05-05T11:51:41.402Z,69.95
2023-05-05T11:53:46.025Z,70.71
2023-05-05T11:55:49.409Z,70.99
2023-05-05T11:57:54.143Z,71.18
2023-05-05T12:00:00.141Z,71.04
2023-05-05T12:02:06.002Z,71.64
2023-05-05T12:04:12.582Z,72.27
2023-05-05T12:06:16.075Z,72.25
2023-05-05T12:08:19.688Z,71.65
2023-05-05T12:10:26.063Z,71.77
2023-05-05T12:12:37.065Z,72.96
2023-05-05T12:14:51.590Z,74.32
2023-05-05T12:16:55.878Z,75.05
2023-05-05T12:19:05.645Z,76.06
2023-05-05T12:21:16.641Z,76.75
2023-05-05T12:23:20.557Z,77.44
2023-05-05T12:25:24.262Z,77.17
2023-05-05T12:27:29.017Z,76.94
2023-05-05T12:29:32.464Z,76.66
2023-05-05T12:31:37.938Z,76.27
2023-05-05T12:33:42.000Z,75.32
2023-05-05T12:35:45.464Z,73.62
2023-05-05T12:37:48.846Z,73.35
2023-05-05T12:39:52.501Z,71.31
2023-05-05T12:42:03.496Z,71.64
2023-05-05T12:44:06.884Z,72.65
2023-05-05T12:46:12.261Z,71.88
2023-05-05T12:48:26.357Z,71.24
2023-05-05T12:50:33.069Z,71.58
2023-05-05T12:52:44.000Z,72.09
2023-05-05T12:54:57.495Z,72.21
2023-05-05T12:57:12.406Z,72.31
2023-05-05T12:59:30.625Z,72.18
2023-05-05T13:01:34.587Z,71.80
2023-05-05T13:03:39.477Z,72.26
2023-05-05T13:05:43.076Z,72.69
2023-05-05T13:07:53.577Z,71.91
2023-05-05T13:10:10.415Z,72.14
2023-05-05T13:12:13.839Z,72.04
2023-05-05T13:14:17.168Z,72.09
2023-05-05T13:16:20.698Z,71.65
2023-05-05T13:18:24.353Z,71.75
2023-05-05T13:20:29.273Z,71.47
2023-05-05T13:22:32.662Z,71.84
2023-05-05T13:24:49.914Z,72.14
2023-05-05T13:26:56.463Z,71.90
2023-05-05T13:28:59.811Z,71.64
2023-05-05T13:31:03.203Z,71.50
2023-05-05T13:33:06.505Z,71.86
2023-05-05T13:35:13.205Z,71.80
2023-05-05T13:37:19.506Z,71.64
2023-05-05T13:39:22.975Z,70.46
2023-05-05T13:41:26.415Z,70.61
2023-05-05T13:43:29.945Z,69.36
2023-05-05T13:45:33.491Z,69.72
2023-05-05T13:47:37.206Z,69.47
2023-05-05T13:49:40.513Z,69.46
2023-05-05T13:51:45.122Z,68.82
2023-05-05T13:53:49.960Z,67.81
2023-05-05T13:55:53.358Z,67.96
2023-05-05T13:57:56.818Z,68.33
2023-05-05T14:00:00.179Z,68.19
2023-05-05T14:02:03.508Z,68.80
2023-05-05T14:04:06.920Z,67.82
2023-05-05T14:06:10.329Z,67.74
2023-05-05T14:08:14.371Z,67.17
2023-05-05T14:10:21.719Z,66.75
2023-05-05T14:12:25.067Z,65.29
2023-05-05T14:14:28.420Z,64.48
2023-05-05T14:16:31.760Z,63.71
2023-05-05T14:18:35.185Z,63.43
2023-05-05T14:20:38.625Z,63.78
2023-05-05T14:22:42.171Z,64.23
2023-05-05T14:24:45.481Z,64.33
2023-05-05T14:26:50.212Z,64.03
2023-05-05T14:28:53.505Z,63.90
2023-05-05T14:30:58.029Z,63.79
2023-05-05T14:33:02.204Z,63.33
2023-05-05T14:35:06.548Z,63.46
2023-05-05T14:37:10.072Z,63.72
2023-05-05T14:39:13.356Z,63.98
2023-05-05T14:41:16.785Z,63.98
2023-05-05T14:43:21.867Z,63.96
2023-05-05T14:45:26.304Z,64.35
2023-05-05T14:47:29.746Z,64.47
2023-05-05T14:49:33.306Z,65.11
2023-05-05T14:51:36.854Z,65.85
2023-05-05T14:53:40.618Z,68.44
2023-05-05T14:55:44.510Z,69.20
2023-05-05T14:57:47.840Z,71.75
2023-05-05T14:59:53.084Z,73.47
2023-05-05T15:01:57.120Z,74.51
2023-05-05T15:04:00.590Z,75.48
2023-05-05T15:06:04.736Z,76.94
2023-05-05T15:08:08.048Z,78.12
2023-05-05T15:10:12.065Z,79.76
2023-05-05T15:12:15.506Z,83.43
2023-05-05T15:14:18.854Z,85.51
2023-05-05T15:16:23.624Z,86.27
2023-05-05T15:18:27.017Z,87.87
2023-05-05T15:20:30.721Z,87.94
2023-05-05T15:22:34.251Z,87.40
2023-05-05T15:24:38.231Z,86.67
2023-05-05T15:26:41.649Z,86.11
2023-05-05T15:28:44.977Z,85.23
2023-05-05T15:30:48.358Z,84.96
2023-05-05T15:32:53.102Z,84.66
2023-05-05T15:34:56.561Z,84.10
2023-05-05T15:36:59.873Z,83.88
2023-05-05T15:39:03.293Z,83.50
2023-05-05T15:41:07.715Z,83.72
2023-05-05T15:43:11.012Z,83.24
2023-05-05T15:45:14.953Z,83.01
2023-05-05T15:47:18.867Z,83.55
2023-05-05T15:49:23.902Z,83.29
2023-05-05T15:51:27.359Z,82.78
2023-05-05T15:53:30.768Z,82.85
2023-05-05T15:55:34.185Z,82.92
2023-05-05T15:57:39.637Z,83.26
2023-05-05T15:59:42.952Z,83.36
2023-05-05T16:01:47.612Z,83.35
2023-05-05T16:03:51.095Z,83.30
2023-05-05T16:05:55.836Z,83.05
2023-05-05T16:07:59.159Z,83.38
2023-05-05T16:10:02.545Z,83.30
2023-05-05T16:12:06.500Z,83.31
2023-05-05T16:14:09.794Z,83.32
2023-05-05T16:16:13.095Z,82.99
2023-05-05T16:18:16.434Z,82.78
2023-05-05T16:20:19.941Z,83.25
2023-05-05T16:22:24.640Z,82.86
2023-05-05T16:24:28.118Z,81.68
2023-05-05T16:26:31.496Z,81.96
2023-05-05T16:28:34.790Z,82.02
2023-05-05T16:30:39.748Z,82.19
2023-05-05T16:32:43.459Z,82.48
2023-05-05T16:34:46.833Z,82.45
2023-05-05T16:36:50.178Z,81.96
2023-05-05T16:38:54.930Z,81.23
2023-05-05T16:40:58.286Z,80.61
2023-05-05T16:43:01.715Z,80.24
2023-05-05T16:45:06.780Z,80.01
2023-05-05T16:47:10.890Z,80.04
2023-05-05T16:49:14.323Z,80.42
2023-05-05T16:51:17.738Z,80.60
2023-05-05T16:53:21.018Z,80.60
2023-05-05T16:55:25.863Z,80.90
2023-05-05T16:57:29.309Z,81.19
2023-05-05T16:59:32.614Z,80.87
2023-05-05T17:01:36.131Z,80.97
2023-05-05T17:03:40.181Z,81.11
2023-05-05T17:05:43.588Z,81.13
2023-05-05T17:07:48.229Z,81.25
2023-05-05T17:09:54.460Z,81.22
2023-05-05T17:11:59.255Z,81.13
2023-05-05T17:14:02.708Z,81.45
2023-05-05T17:16:06.441Z,81.92
2023-05-05T17:18:10.168Z,81.98
2023-05-05T17:20:14.063Z,82.34
2023-05-05T17:22:17.504Z,82.70
2023-05-05T17:24:20.992Z,82.82
2023-05-05T17:26:24.312Z,82.81
2023-05-05T17:28:29.068Z,82.98
2023-05-05T17:30:32.518Z,82.91
2023-05-05T17:32:36.178Z,82.75
2023-05-05T17:34:41.006Z,82.74
2023-05-05T17:36:44.425Z,82.45
2023-05-05T17:38:47.926Z,82.18
2023-05-05T17:40:52.166Z,82.13
2023-05-05T17:42:55.542Z,82.15
2023-05-05T17:45:00.587Z,82.08
2023-05-05T17:47:04.022Z,82.07
2023-05-05T17:49:07.576Z,82.15
2023-05-05T17:51:11.137Z,82.13
2023-05-05T17:53:14.471Z,82.41
2023-05-05T17:55:18.039Z,82.42
2023-05-05T17:57:22.698Z,82.40
2023-05-05T17:59:26.254Z,82.52
2023-05-05T18:01:30.996Z,82.25
2023-05-05T18:03:34.535Z,82.66
2023-05-05T18:05:37.943Z,83.03
2023-05-05T18:07:41.347Z,83.08
2023-05-05T18:09:44.736Z,83.20
2023-05-05T18:11:48.524Z,82.97
2023-05-05T18:13:51.849Z,83.48
2023-05-05T18:15:55.189Z,83.55
2023-05-05T18:17:59.926Z,83.83
2023-05-05T18:20:04.137Z,84.00
2023-05-05T18:22:07.436Z,84.55
2023-05-05T18:24:19.405Z,84.73
2023-05-05T18:26:23.591Z,84.89
2023-05-05T18:28:26.850Z,84.94
2023-05-05T18:30:30.384Z,84.92
2023-05-05T18:32:33.919Z,84.88
2023-05-05T18:34:38.737Z,85.19
2023-05-05T18:36:42.091Z,85.79
2023-05-05T18:38:45.513Z,86.26
2023-05-05T18:40:49.094Z,86.89
2023-05-05T18:42:52.408Z,87.28
2023-05-05T18:44:55.784Z,87.50
2023-05-05T18:46:59.904Z,87.59
2023-05-05T18:49:03.526Z,87.54
2023-05-05T18:51:08.455Z,87.76
2023-05-05T18:53:13.621Z,87.84
2023-05-05T18:55:17.139Z,88.47
2023-05-05T18:57:20.543Z,88.81
2023-05-05T18:59:24.074Z,89.02
2023-05-05T19:01:30.132Z,89.27
2023-05-05T19:03:35.587Z,89.44
2023-05-05T19:05:40.578Z,89.89
2023-05-05T19:07:45.426Z,90.21
2023-05-05T19:09:48.858Z,90.28
2023-05-05T19:11:53.007Z,90.27
2023-05-05T19:13:56.634Z,90.68
2023-05-05T19:15:59.995Z,90.97
2023-05-05T19:18:05.518Z,91.29
2023-05-05T19:20:10.206Z,90.79
2023-05-05T19:22:13.576Z,90.27
2023-05-05T19:24:18.292Z,89.48
2023-05-05T19:26:21.760Z,89.07
2023-05-05T19:28:25.145Z,88.24
2023-05-05T19:30:28.622Z,88.14
2023-05-05T19:32:31.991Z,87.86
2023-05-05T19:34:35.502Z,87.64
2023-05-05T19:36:39.283Z,87.72
2023-05-05T19:38:44.442Z,87.68
2023-05-05T19:40:50.170Z,87.47
2023-05-05T19:42:53.488Z,87.61
2023-05-05T19:44:56.833Z,87.35
2023-05-05T19:47:00.253Z,87.29
2023-05-05T19:49:03.777Z,87.35
2023-05-05T19:51:07.206Z,87.27
2023-05-05T19:53:10.720Z,86.95
2023-05-05T19:55:14.060Z,86.99
2023-05-05T19:57:22.212Z,86.84
2023-05-05T19:59:26.012Z,86.78
2023-05-05T20:01:30.130Z,86.65
2023-05-05T20:03:33.576Z,86.54
2023-05-05T20:05:37.962Z,86.65
2023-05-05T20:07:42.086Z,86.67
2023-05-05T20:09:45.440Z,86.46
2023-05-05T20:11:48.726Z,86.43
2023-05-05T20:13:53.619Z,86.74
2023-05-05T20:15:57.032Z,86.58
2023-05-05T20:18:00.462Z,86.91
2023-05-05T20:20:04.004Z,86.66
2023-05-05T20:22:07.477Z,86.82
2023-05-05T20:24:10.781Z,86.86
2023-05-05T20:26:14.290Z,86.88
2023-05-05T20:28:17.640Z,86.79
2023-05-05T20:30:22.719Z,87.16
2023-05-05T20:32:26.088Z,87.33
2023-05-05T20:34:29.577Z,87.15
2023-05-05T20:36:33.010Z,87.43
2023-05-05T20:38:36.372Z,87.48
2023-05-05T20:40:41.401Z,87.70
2023-05-05T20:42:44.770Z,87.66
2023-05-05T20:44:48.101Z,87.30
2023-05-05T20:46:52.893Z,87.33
2023-05-05T20:48:56.319Z,87.43
2023-05-05T20:50:59.756Z,87.23
2023-05-05T20:53:03.294Z,87.17
2023-05-05T20:55:07.628Z,87.36
2023-05-05T20:57:11.472Z,87.22
2023-05-05T20:59:14.870Z,86.98
2023-05-05T21:01:18.518Z,87.02
2023-05-05T21:03:23.236Z,87.12
2023-05-05T21:05:26.957Z,87.30
2023-05-05T21:07:31.301Z,87.18
2023-05-05T21:09:35.765Z,87.17
2023-05-05T21:11:39.192Z,86.83
2023-05-05T21:13:42.599Z,86.95
2023-05-05T21:15:46.090Z,86.87
2023-05-05T21:17:49.730Z,87.10
2023-05-05T21:19:54.923Z,87.16
2023-05-05T21:21:59.271Z,87.29
2023-05-05T21:24:03.834Z,87.16
2023-05-05T21:26:08.920Z,87.04
2023-05-05T21:28:12.270Z,87.30
2023-05-05T21:30:16.602Z,87.38
2023-05-05T21:32:20.488Z,87.36
2023-05-05T21:34:24.059Z,87.15
2023-05-05T21:36:29.066Z,87.08
2023-05-05T21:38:32.445Z,87.01
2023-05-05T21:40:35.974Z,87.07
2023-05-05T21:42:39.403Z,87.30
2023-05-05T21:44:42.803Z,87.29
2023-05-05T21:46:46.333Z,87.36
2023-05-05T21:48:49.960Z,87.63
2023-05-05T21:50:53.621Z,87.62
2023-05-05T21:52:58.396Z,87.65
2023-05-05T21:55:01.991Z,88.00
2023-05-05T21:57:06.308Z,88.09
2023-05-05T21:59:09.759Z,88.16
2023-05-05T22:01:13.227Z,87.89
2023-05-05T22:03:16.895Z,88.11
2023-05-05T22:05:20.596Z,88.06
2023-05-05T22:07:24.868Z,88.07
2023-05-05T22:09:29.688Z,88.11
2023-05-05T22:11:33.045Z,87.86
2023-05-05T22:13:37.498Z,88.26
2023-05-05T22:15:46.662Z,88.07
2023-05-05T22:17:50.949Z,87.93
2023-05-05T22:19:54.287Z,88.07
2023-05-05T22:21:58.554Z,88.09
2023-05-05T22:24:02.239Z,88.20
2023-05-05T22:26:07.042Z,87.94
2023-05-05T22:28:10.329Z,87.77
2023-05-05T22:30:14.767Z,87.69
2023-05-05T22:32:18.091Z,87.25
2023-05-05T22:34:21.870Z,87.66
2023-05-05T22:36:25.918Z,87.80
2023-05-05T22:38:29.344Z,87.70
2023-05-05T22:40:32.852Z,87.86
2023-05-05T22:42:37.710Z,88.14
2023-05-05T22:44:41.079Z,87.85
2023-05-05T22:46:44.452Z,88.10
2023-05-05T22:48:47.940Z,87.92
2023-05-05T22:50:51.561Z,87.86
2023-05-05T22:52:57.938Z,87.55
2023-05-05T22:55:01.340Z,87.67
2023-05-05T22:57:04.866Z,87.38
2023-05-05T22:59:09.571Z,87.78
2023-05-05T23:01:13.548Z,87.52
2023-05-05T23:03:17.082Z,87.65
2023-05-05T23:05:20.517Z,87.72
2023-05-05T23:07:23.979Z,87.69
2023-05-05T23:09:27.357Z,87.60
2023-05-05T23:11:30.748Z,87.42
2023-05-05T23:13:36.984Z,87.20
2023-05-05T23:15:41.922Z,87.46
2023-05-05T23:17:45.426Z,87.61
2023-05-05T23:19:49.238Z,87.80
2023-05-05T23:21:53.813Z,87.71
2023-05-05T23:23:57.322Z,87.77
2023-05-05T23:26:00.702Z,87.66
2023-05-05T23:28:04.175Z,87.52
2023-05-05T23:30:09.147Z,87.61
2023-05-05T23:32:14.039Z,87.74
2023-05-05T23:34:17.550Z,87.80
2023-05-05T23:36:20.973Z,87.78
2023-05-05T23:38:24.382Z,87.94
2023-05-05T23:40:27.913Z,87.88
2023-05-05T23:42:31.270Z,88.13
2023-05-05T23:44:34.884Z,88.00
2023-05-05T23:46:38.329Z,87.99
2023-05-05T23:48:43.301Z,87.87
2023-05-05T23:50:46.666Z,87.65
2023-05-05T23:52:50.089Z,87.73
2023-05-05T23:54:53.377Z,88.05
2023-05-05T23:56:56.848Z,88.13
2023-05-05T23:59:00.188Z,88.17
